NCAR-RAP Real-Time Weather Data

Output produced by METARs form (21 May 2019  10:38 UTC)
found at http://weather.rap.ucar.edu/surface/
 
RJFM 211000Z 12003KT 9999 FEW040 21/14 Q1005
RJFM 210900Z 11006KT CAVOK 22/14 Q1004
RJFM 210800Z 11007KT 9999 FEW030 23/13 Q1004
RJFM 210700Z 11010KT 9999 FEW025 23/13 Q1003
RJFM 210600Z 13008KT 9999 FEW025 23/13 Q1003
RJFM 210500Z 09008KT 9999 FEW025 23/14 Q1003
RJFM 210400Z 07010KT 9999 FEW020 23/16 Q1004
RJFM 210300Z 06007KT 9999 FEW020 22/14 Q1004
RJFM 210200Z 05006KT 9999 FEW020 22/14 Q1004
RJFM 210100Z 04007KT 9999 FEW020 22/14 Q1004
RJFM 210000Z 32005KT 240V360 9999 SCT020 20/11 Q1005
RJFM 202300Z 29008KT 9999 FEW010 BKN022 18/12 Q1005
RJFM 202200Z 28010KT 9999 FEW010 BKN025 17/11 Q1004
RJFM 202110Z 27010KT 9999 FEW010 BKN025 17/11 Q1004 RMK 1ST010 5CU025 A2965
RJFM 201200Z 28005KT 250V320 9999 FEW020 SCT045 BKN080 22/19 Q1003
RJFM 201100Z 25011KT 9999 FEW010 SCT035 BKN045 22/20 Q1003
RJFM 201000Z 26011KT 9999 FEW007 SCT020 BKN040 22/20 Q1003
RJFM 200900Z 26013KT 5000 -SHRA BR FEW007 SCT020 BKN025 23/21 Q1002
RJFM 200836Z 26010KT 3000 -SHRA BR FEW003 SCT015 BKN020 24/22 Q1002 RMK 1ST003 4CU015 6CU020 A2961
RJFM 200800Z 14003KT 120V180 4000 -SHRA BR FEW003 BKN020 BKN025 24/23 Q1002
RJFM 200700Z 15004KT 110V180 5000 -SHRA BR FEW005 SCT015 BKN025 25/23 Q1002
RJFM 200600Z 15010KT 5000 BR FEW005 SCT020 BKN090 25/23 Q1003
RJFM 200500Z 14009KT 6000 FEW003 SCT015 BKN060 24/23 Q1003
RJFM 200400Z 16009KT 6000 FEW005 SCT010 BKN050 25/23 Q1004
RJFM 200300Z 14014KT 7000 -SHRA FEW005 SCT008 BKN010 24/23 Q1005
RJFM 200200Z 16015KT 5000 -SHRA BR FEW004 SCT008 BKN014 24/22 Q1005
RJFM 200134Z 14015KT 2000 SHRA BR FEW003 SCT005 BKN007 23/23 Q1005 RMK 1ST003 4ST005 6ST007 A2969
RJFM 200119Z 15009KT 100V180 3500 R27/1300VP1800U -SHRA BR FEW003 SCT005 BKN007 23/23 Q1005 RMK 1ST003 4ST005 6ST007 A2970
RJFM 200114Z VRB07KT 4000 R27/1300VP1800D -SHRA BR FEW003 SCT005 BKN007 23/22 Q1006 RMK 1ST003 4ST005 6ST007 A2971
RJFM 200100Z 03005KT 360V080 4000 -SHRA BR FEW004 SCT008 BKN010 22/21 Q1005
RJFM 200042Z 04009KT 4000 R27/1000VP1800D -SHRA BR FEW004 SCT008 BKN010 22/21 Q1006 RMK 1ST004 4ST008 6ST010 A2971 2000E
RJFM 200034Z 04008KT 4000 R27/1300VP1800D -SHRA BR FEW004 SCT008 BKN010 22/21 Q1006 RMK 1ST004 4ST008 6ST010 A2971 2000E
RJFM 200000Z 12004KT 070V160 7000 FEW004 BKN017 BKN025 23/21 Q1006
RJFM 192300Z 14006KT 5000 BR FEW005 SCT008 BKN025 22/21 Q1006
RJFM 192200Z 16010KT 5000 -SHRA BR FEW003 SCT006 BKN012 22/21 Q1006
RJFM 192110Z 16013KT 8000 -SHRA FEW003 SCT006 BKN010 21/21 Q1006 RMK 1ST003 4ST006 6ST010 A2971
RJFM 191200Z 12013KT 2600 SHRA BR FEW003 SCT005 BKN010 22/22 Q1011
RJFM 191139Z 11011KT 2600 SHRA BR FEW003 SCT005 BKN010 22/22 Q1011 RMK 1ST003 3ST005 5ST010 A2987
RJFM 191108Z 10016KT 2000 +SHRA BR FEW003 SCT005 BKN007 22/21 Q1011 RMK 1ST003 3ST005 5ST007 A2986
RJFM 191100Z 10015KT 2600 SHRA BR FEW003 SCT005 BKN007 22/22 Q1011
RJFM 191042Z 09016KT 2600 SHRA BR FEW003 SCT005 BKN010 22/21 Q1011 RMK 1ST003 3ST005 5ST010 A2986
RJFM 191030Z 09016KT 2000 +SHRA BR FEW003 SCT005 BKN010 22/21 Q1011 RMK 1ST003 3ST005 5ST010 A2986
RJFM 191021Z 09017KT 2200 SHRA BR FEW003 SCT005 BKN010 22/21 Q1011 RMK 1ST003 3ST005 5ST010 A2986
RJFM 191000Z 09017KT 3200 SHRA BR FEW003 SCT005 BKN010 22/21 Q1011
RJFM 190938Z 09018KT 3500 SHRA BR FEW003 SCT005 BKN010 22/21 Q1011 RMK 1ST003 3ST005 5ST010 A2985
RJFM 190900Z 10016KT 2600 SHRA BR FEW003 SCT005 BKN010 22/21 Q1011
RJFM 190800Z 09017KT 2600 SHRA BR FEW003 SCT006 BKN010 22/21 Q1011
RJFM 190741Z 08015KT 2800 -SHRA BR FEW003 SCT006 BKN013 22/21 Q1011 RMK 1ST003 3ST006 5CU013 A2986
RJFM 190725Z 09017KT 3500 -SHRA BR FEW003 SCT007 BKN015 22/21 Q1011 RMK 1ST003 3ST007 5CU015 A2986
RJFM 190712Z 09016KT 2600 SHRA BR FEW003 SCT007 BKN015 22/21 Q1011 RMK 1ST003 3ST007 5CU015 A2986
RJFM 190700Z 09017KT 3300 -SHRA BR FEW003 SCT007 BKN015 22/21 Q1011
RJFM 190600Z 09018KT 3500 -SHRA BR FEW003 SCT006 BKN012 22/22 Q1011
RJFM 190531Z 10018KT 3500 -SHRA BR FEW003 SCT006 BKN015 22/21 Q1012 RMK 1ST003 3ST006 6CU015 A2989
RJFM 190509Z 10018G28KT 2600 -SHRA BR FEW003 SCT006 BKN010 22/21 Q1012 RMK 1ST003 3ST006 6ST010 A2989
RJFM 190500Z 10020KT 2600 -SHRA BR FEW003 SCT006 BKN010 22/21 Q1012
RJFM 190442Z 10018KT 2000 R27/0900V1800U SHRA BR FEW003 SCT006 BKN010 22/21 Q1012 RMK 1ST003 3ST006 6ST010 A2990
RJFM 190428Z 11019KT 2400 R27/1000VP1800U SHRA BR FEW003 SCT006 BKN010 21/21 Q1012 RMK 1ST003 3ST006 6ST010 A2990
RJFM 190407Z 10018KT 2200 R27/1700D SHRA BR FEW003 SCT006 BKN010 22/21 Q1012 RMK 1ST003 3ST006 6ST010 A2990
RJFM 190400Z 09017KT 2500 -SHRA BR FEW003 SCT006 BKN012 22/21 Q1012
RJFM 190300Z 10018KT 3500 -SHRA BR FEW003 SCT006 BKN012 22/21 Q1012
RJFM 190237Z 11016KT 2000 R27/1400VP1800D SHRA BR FEW003 SCT006 BKN010 22/21 Q1013 RMK 1ST003 4ST006 5CU010 A2992
RJFM 190200Z 11019KT 3500 -SHRA BR FEW003 SCT008 BKN015 22/21 Q1013
RJFM 190100Z 10019KT 1800 R27/1200VP1800D SHRA BR FEW005 SCT008 BKN012 22/21 Q1013
RJFM 190000Z 10020KT 3500 -SHRA BR FEW005 SCT008 BKN015 21/20 Q1012
RJFM 182324Z 10019KT 2500 -SHRA BR FEW005 SCT012 BKN020 22/21 Q1012 RMK 1ST005 4CU012 6CU020 A2991
RJFM 182300Z 10019KT 3500 -SHRA BR FEW005 BKN015 BKN020 22/21 Q1012
RJFM 182239Z 09016KT 3000 -SHRA BR FEW005 SCT007 BKN010 22/21 Q1012 RMK 1ST005 3ST007 5CU010 A2990